Time;durP1;ratioP1;P1;durP2;ratioP2;P2;SDS_P1;SDS_P2;PMS_P1;PMS_P2;Temp;Humidity;BMP_temperature;BMP_pressure;BME280_temperature;BME280_humidity;BME280_pressure;Samples;Min_cycle;Max_cycle;Signal;HPM_P1;HPM_P2
2022/07/04 00:01:09;;;;;;;2.83;1.00;;;;;;;;;;6212079;23;20028;-62
2022/07/04 00:03:35;;;;;;;0.90;0.80;;;;;;;;;;6208042;23;20020;-62
2022/07/04 00:06:02;;;;;;;3.33;1.00;;;;;;;;;;6211101;23;20070;-62
2022/07/04 00:08:29;;;;;;;1.33;0.80;;;;;;;;;;6209118;23;20236;-61
2022/07/04 00:10:55;;;;;;;2.40;1.10;;;;;;;;;;6211630;23;20054;-62
2022/07/04 00:13:22;;;;;;;1.67;0.80;;;;;;;;;;6208881;23;20016;-61
2022/07/04 00:15:50;;;;;;;5.60;1.17;;;;;;;;;;6236794;23;20039;-62
2022/07/04 00:18:17;;;;;;;5.63;1.10;;;;;;;;;;6208107;23;20024;-61
2022/07/04 00:20:43;;;;;;;2.33;1.00;;;;;;;;;;6212142;23;20030;-61
2022/07/04 00:23:10;;;;;;;1.88;1.00;;;;;;;;;;6234262;23;20070;-61
2022/07/04 00:25:36;;;;;;;1.70;0.98;;;;;;;;;;6212007;23;20039;-61
2022/07/04 00:28:03;;;;;;;4.38;1.00;;;;;;;;;;6235268;23;20020;-61
2022/07/04 00:30:32;;;;;;;1.65;0.80;;;;;;;;;;6212044;23;20028;-61
2022/07/04 00:33:00;;;;;;;3.80;0.98;;;;;;;;;;6208860;23;20044;-61
2022/07/04 00:35:26;;;;;;;3.15;0.90;;;;;;;;;;6212336;23;20116;-61
2022/07/04 00:37:54;;;;;;;2.00;0.90;;;;;;;;;;6211653;23;20024;-62
2022/07/04 00:40:20;;;;;;;1.75;0.82;;;;;;;;;;6208241;23;20017;-61
2022/07/04 00:42:47;;;;;;;2.70;1.00;;;;;;;;;;6211698;23;20044;-60
2022/07/04 00:45:14;;;;;;;2.63;1.13;;;;;;;;;;6208601;23;20020;-61
2022/07/04 00:47:41;;;;;;;3.33;1.10;;;;;;;;;;6211526;23;20074;-61
2022/07/04 00:50:09;;;;;;;1.70;0.82;;;;;;;;;;6208655;23;20020;-61
2022/07/04 00:52:35;;;;;;;2.58;0.98;;;;;;;;;;6212695;23;20023;-61
2022/07/04 00:55:02;;;;;;;1.65;0.98;;;;;;;;;;6234934;22;20070;-62
2022/07/04 00:57:29;;;;;;;2.75;1.20;;;;;;;;;;6242734;22;20026;-63
2022/07/04 00:59:56;;;;;;;3.33;0.80;;;;;;;;;;6240691;22;20020;-61
2022/07/04 01:02:23;;;;;;;3.92;1.05;;;;;;;;;;6243694;22;20023;-61
2022/07/04 01:04:49;;;;;;;2.22;1.10;;;;;;;;;;6235843;22;20024;-61
2022/07/04 01:07:18;;;;;;;1.48;0.85;;;;;;;;;;6243543;22;20012;-61
2022/07/04 01:09:44;;;;;;;2.45;0.82;;;;;;;;;;6241254;22;20024;-61
2022/07/04 01:12:11;;;;;;;1.98;0.80;;;;;;;;;;6242938;22;20042;-61
2022/07/04 01:14:38;;;;;;;2.97;0.90;;;;;;;;;;6244313;22;20084;-61
2022/07/04 01:17:06;;;;;;;4.88;1.10;;;;;;;;;;6241008;22;20127;-62
2022/07/04 01:19:33;;;;;;;1.58;0.90;;;;;;;;;;6269782;22;20048;-61
2022/07/04 01:22:06;;;;;;;0.88;0.77;;;;;;;;;;6241376;22;20038;-62
2022/07/04 01:24:32;;;;;;;3.50;1.23;;;;;;;;;;6242480;22;20043;-63
2022/07/04 01:26:59;;;;;;;1.35;0.90;;;;;;;;;;6240661;22;20030;-63
2022/07/04 01:29:26;;;;;;;2.13;0.95;;;;;;;;;;6244702;22;20069;-62
2022/07/04 01:31:53;;;;;;;1.63;0.90;;;;;;;;;;6242976;22;20043;-61
2022/07/04 01:34:20;;;;;;;1.65;0.80;;;;;;;;;;6242252;22;20023;-63
2022/07/04 01:36:48;;;;;;;3.22;0.90;;;;;;;;;;6242892;22;20038;-63
2022/07/04 01:39:16;;;;;;;1.40;0.90;;;;;;;;;;6266080;22;20019;-63
2022/07/04 01:41:42;;;;;;;1.05;0.63;;;;;;;;;;6243571;22;20020;-63
2022/07/04 01:44:09;;;;;;;2.10;0.95;;;;;;;;;;6240767;22;20101;-63
2022/07/04 01:46:36;;;;;;;2.70;1.10;;;;;;;;;;6243008;22;20027;-61
2022/07/04 01:49:02;;;;;;;2.15;0.95;;;;;;;;;;6241511;22;20026;-62
2022/07/04 01:51:29;;;;;;;1.85;0.95;;;;;;;;;;6242970;22;20027;-63
2022/07/04 01:53:55;;;;;;;2.70;1.15;;;;;;;;;;6230796;23;20036;-63
2022/07/04 01:56:24;;;;;;;3.00;0.98;;;;;;;;;;6209700;23;20027;-61
2022/07/04 01:58:51;;;;;;;2.53;0.90;;;;;;;;;;6239181;23;20027;-62
2022/07/04 02:01:31;;;;;;;4.28;1.10;;;;;;;;;;6208397;23;20027;-61
2022/07/04 02:03:58;;;;;;;2.45;1.00;;;;;;;;;;6238056;23;20031;-60
2022/07/04 02:06:25;;;;;;;4.88;1.00;;;;;;;;;;6208897;23;20016;-61
2022/07/04 02:14:17;;;;;;;1.25;0.88;;;;;;;;;;6212785;23;20069;-61
2022/07/04 02:16:45;;;;;;;2.17;0.90;;;;;;;;;;6210764;23;20020;-61
2022/07/04 02:19:12;;;;;;;2.15;1.00;;;;;;;;;;6237053;23;20016;-60
2022/07/04 02:21:38;;;;;;;1.38;0.75;;;;;;;;;;6213324;23;20026;-62
2022/07/04 02:24:06;;;;;;;2.22;0.90;;;;;;;;;;6209932;23;20024;-62
2022/07/04 02:26:33;;;;;;;3.03;1.02;;;;;;;;;;6212761;23;20012;-62
2022/07/04 02:29:01;;;;;;;2.25;0.93;;;;;;;;;;6234589;23;20020;-62
2022/07/04 02:31:27;;;;;;;2.13;1.10;;;;;;;;;;6212317;23;20030;-63
2022/07/04 02:33:54;;;;;;;2.42;0.95;;;;;;;;;;6209829;23;20025;-63
2022/07/04 02:36:20;;;;;;;3.30;1.00;;;;;;;;;;6212647;23;20024;-63
2022/07/04 02:38:47;;;;;;;2.90;1.00;;;;;;;;;;6208691;23;20023;-63
2022/07/04 02:41:14;;;;;;;2.40;0.90;;;;;;;;;;6213068;23;20020;-62
2022/07/04 02:43:40;;;;;;;3.88;1.00;;;;;;;;;;6209265;23;20024;-61
2022/07/04 02:46:09;;;;;;;2.22;1.20;;;;;;;;;;6212612;23;20102;-62
2022/07/04 02:48:36;;;;;;;2.15;1.02;;;;;;;;;;6208804;23;20020;-60
2022/07/04 02:51:02;;;;;;;1.00;0.80;;;;;;;;;;6212743;23;20079;-61
2022/07/04 02:53:29;;;;;;;1.80;0.90;;;;;;;;;;6235160;22;20031;-61
2022/07/04 02:55:55;;;;;;;1.83;1.00;;;;;;;;;;6236864;23;20023;-62
2022/07/04 02:58:22;;;;;;;2.30;1.00;;;;;;;;;;6237479;23;20066;-63
2022/07/04 03:00:52;;;;;;;4.10;1.23;;;;;;;;;;6209219;23;20047;-63
2022/07/04 03:03:20;;;;;;;1.45;0.80;;;;;;;;;;6212408;23;20020;-61
2022/07/04 03:05:46;;;;;;;1.52;0.85;;;;;;;;;;6209564;23;20048;-61
2022/07/04 03:08:15;;;;;;;1.85;0.90;;;;;;;;;;6211997;23;20074;-61
2022/07/04 03:10:41;;;;;;;;;;;;;;;;;;6209706;23;20075;-61
2022/07/04 03:13:08;;;;;;;2.63;0.95;;;;;;;;;;6212596;23;19970;-62
2022/07/04 03:15:34;;;;;;;4.22;1.08;;;;;;;;;;6208663;23;20020;-61
2022/07/04 03:18:01;;;;;;;3.08;1.00;;;;;;;;;;6210114;23;20052;-61
2022/07/04 03:20:29;;;;;;;1.35;0.90;;;;;;;;;;6234607;23;20024;-62
2022/07/04 03:22:55;;;;;;;3.33;1.10;;;;;;;;;;6237702;23;20074;-62
2022/07/04 03:25:22;;;;;;;1.63;0.90;;;;;;;;;;6208410;23;20027;-61
2022/07/04 03:27:49;;;;;;;2.47;0.90;;;;;;;;;;6212250;23;20016;-61
2022/07/04 03:30:15;;;;;;;1.40;0.90;;;;;;;;;;6209289;23;20024;-62
2022/07/04 03:32:42;;;;;;;3.22;1.10;;;;;;;;;;6211924;23;20034;-62
2022/07/04 03:35:09;;;;;;;2.80;1.20;;;;;;;;;;6236417;23;20073;-61
2022/07/04 03:37:37;;;;;;;1.75;1.13;;;;;;;;;;6236321;23;20421;-61
2022/07/04 03:40:04;;;;;;;3.63;1.00;;;;;;;;;;6212477;23;20020;-63
2022/07/04 03:42:31;;;;;;;3.20;1.02;;;;;;;;;;6234649;23;20032;-62
2022/07/04 03:44:57;;;;;;;1.73;1.10;;;;;;;;;;6212305;23;20031;-62
2022/07/04 03:47:26;;;;;;;2.30;1.30;;;;;;;;;;6208702;23;20027;-62
2022/07/04 03:49:52;;;;;;;;;;;;;;;;;;6238221;23;20031;-61
2022/07/04 03:52:19;;;;;;;4.10;1.55;;;;;;;;;;6207745;23;19927;-61
2022/07/04 03:54:47;;;;;;;2.50;1.40;;;;;;;;;;6211256;23;20020;-62
2022/07/04 03:57:14;;;;;;;3.53;1.42;;;;;;;;;;6233747;23;20051;-61
2022/07/04 03:59:40;;;;;;;5.10;1.33;;;;;;;;;;6237449;23;20020;-62
2022/07/04 04:02:06;;;;;;;2.47;1.15;;;;;;;;;;6206640;23;20016;-62
2022/07/04 04:07:20;;;;;;;2.97;1.20;;;;;;;;;;6208255;23;20020;-63
2022/07/04 04:09:48;;;;;;;4.95;2.40;;;;;;;;;;6210629;23;20039;-62
2022/07/04 04:12:15;;;;;;;8.30;2.47;;;;;;;;;;6185094;23;20274;-61
2022/07/04 04:14:41;;;;;;;6.07;3.15;;;;;;;;;;6211368;23;20012;-61
2022/07/04 04:17:08;;;;;;;2.05;1.15;;;;;;;;;;6236224;23;20049;-60
2022/07/04 04:19:34;;;;;;;8.40;2.78;;;;;;;;;;6206976;23;20012;-60
2022/07/04 04:22:01;;;;;;;5.22;2.50;;;;;;;;;;6211801;23;20042;-60
2022/07/04 04:24:27;;;;;;;5.55;2.30;;;;;;;;;;6209081;23;20035;-61
2022/07/04 04:26:57;;;;;;;7.65;2.40;;;;;;;;;;6211977;23;20020;-61
2022/07/04 04:29:23;;;;;;;2.67;1.30;;;;;;;;;;6209113;23;20027;-61
2022/07/04 04:31:50;;;;;;;3.42;1.52;;;;;;;;;;6213543;23;20024;-61
2022/07/04 04:34:16;;;;;;;4.47;1.60;;;;;;;;;;6238783;23;20082;-62
2022/07/04 04:36:43;;;;;;;2.97;1.30;;;;;;;;;;6237202;23;20114;-61
2022/07/04 04:39:09;;;;;;;3.95;1.85;;;;;;;;;;6214004;23;20016;-60
2022/07/04 04:41:36;;;;;;;2.92;1.73;;;;;;;;;;6237178;23;20062;-61
2022/07/04 04:44:05;;;;;;;4.60;1.40;;;;;;;;;;6215415;23;20020;-61
2022/07/04 04:46:32;;;;;;;;;;;;;;;;;;6209316;23;20043;-62
2022/07/04 04:48:59;;;;;;;3.13;1.55;;;;;;;;;;6212913;23;19927;-61
2022/07/04 04:51:25;;;;;;;8.05;3.75;;;;;;;;;;6235710;23;20023;-61
2022/07/04 04:53:52;;;;;;;5.45;2.55;;;;;;;;;;6236799;23;20019;-61
2022/07/04 04:56:19;;;;;;;2.65;1.40;;;;;;;;;;6263186;22;20024;-62
2022/07/04 04:58:46;;;;;;;4.80;1.90;;;;;;;;;;6233497;23;20021;-63
2022/07/04 05:01:14;;;;;;;5.75;2.05;;;;;;;;;;6263676;22;20024;-61
2022/07/04 05:03:41;;;;;;;2.00;1.23;;;;;;;;;;6227814;23;20050;-61
2022/07/04 05:06:08;;;;;;;2.40;1.27;;;;;;;;;;6259233;22;20024;-60
2022/07/04 05:08:34;;;;;;;3.75;1.40;;;;;;;;;;6231960;23;20276;-62
2022/07/04 05:11:01;;;;;;;8.07;2.63;;;;;;;;;;6238417;23;20035;-61
2022/07/04 05:13:27;;;;;;;4.60;1.77;;;;;;;;;;6262829;22;20020;-61
2022/07/04 05:15:54;;;;;;;6.18;2.45;;;;;;;;;;6259077;22;20017;-60
2022/07/04 05:18:22;;;;;;;6.47;2.25;;;;;;;;;;6237234;23;20023;-62
2022/07/04 05:20:49;;;;;;;4.30;2.08;;;;;;;;;;6257658;22;20016;-61
2022/07/04 05:23:15;;;;;;;4.18;1.90;;;;;;;;;;6263376;22;20024;-61
2022/07/04 05:25:42;;;;;;;5.30;2.00;;;;;;;;;;6257221;22;20020;-61
2022/07/04 05:28:09;;;;;;;5.22;2.58;;;;;;;;;;6262947;22;20024;-62
2022/07/04 05:30:36;;;;;;;8.02;2.65;;;;;;;;;;6235336;23;20024;-62
2022/07/04 05:33:03;;;;;;;7.05;2.55;;;;;;;;;;6234517;23;20031;-62
2022/07/04 05:35:31;;;;;;;7.55;2.00;;;;;;;;;;6261569;22;20121;-62
2022/07/04 05:37:58;;;;;;;;;;;;;;;;;;6258602;22;20024;-62
2022/07/04 05:40:24;;;;;;;2.70;1.38;;;;;;;;;;6237604;23;19920;-61
2022/07/04 05:42:51;;;;;;;7.32;2.92;;;;;;;;;;6260713;22;20027;-62
2022/07/04 05:45:18;;;;;;;10.15;3.00;;;;;;;;;;6262106;22;20146;-61
2022/07/04 05:47:45;;;;;;;6.93;2.40;;;;;;;;;;6259885;22;20030;-63
2022/07/04 05:50:11;;;;;;;4.45;2.08;;;;;;;;;;6238172;23;20019;-61
2022/07/04 05:52:39;;;;;;;2.55;1.58;;;;;;;;;;6263465;22;20086;-62
2022/07/04 05:55:07;;;;;;;5.55;1.48;;;;;;;;;;6262110;22;20024;-62
2022/07/04 05:57:34;;;;;;;6.07;1.80;;;;;;;;;;6240828;22;20050;-62
2022/07/04 06:00:00;;;;;;;6.70;2.45;;;;;;;;;;6265745;22;20023;-63
2022/07/04 06:02:27;;;;;;;3.75;1.42;;;;;;;;;;6243072;22;20026;-62
2022/07/04 06:04:53;;;;;;;8.52;2.22;;;;;;;;;;6240205;22;20028;-62
2022/07/04 06:07:20;;;;;;;4.63;1.92;;;;;;;;;;6243050;22;20030;-62
2022/07/04 06:09:48;;;;;;;3.38;1.33;;;;;;;;;;6241809;22;20020;-63
2022/07/04 06:12:15;;;;;;;5.82;2.17;;;;;;;;;;6266658;22;20015;-62
2022/07/04 06:14:41;;;;;;;9.43;1.90;;;;;;;;;;6243653;22;20065;-61
2022/07/04 06:17:09;;;;;;;4.43;2.03;;;;;;;;;;6240513;22;20065;-61
2022/07/04 06:19:35;;;;;;;9.93;2.33;;;;;;;;;;6243576;22;20024;-61
2022/07/04 06:22:02;;;;;;;4.05;1.95;;;;;;;;;;6239907;22;20027;-62
2022/07/04 06:24:28;;;;;;;6.43;2.40;;;;;;;;;;6243015;22;20031;-60
2022/07/04 06:26:57;;;;;;;3.95;1.60;;;;;;;;;;6239497;22;20027;-61
2022/07/04 06:29:24;;;;;;;3.17;1.42;;;;;;;;;;6268467;22;20024;-61
2022/07/04 06:31:51;;;;;;;5.50;2.65;;;;;;;;;;6240061;22;20016;-62
2022/07/04 06:37:02;;;;;;;4.82;1.80;;;;;;;;;;6238732;22;20023;-61
2022/07/04 06:39:29;;;;;;;7.80;2.47;;;;;;;;;;6268351;22;20027;-62
2022/07/04 06:41:55;;;;;;;4.70;1.92;;;;;;;;;;6239844;22;20019;-62
2022/07/04 06:44:23;;;;;;;9.05;2.80;;;;;;;;;;6243093;22;20027;-62
2022/07/04 06:46:50;;;;;;;5.28;2.03;;;;;;;;;;6268300;22;20020;-61
2022/07/04 06:49:17;;;;;;;9.00;2.97;;;;;;;;;;6240604;22;20015;-62
2022/07/04 06:51:47;;;;;;;5.18;2.60;;;;;;;;;;6268349;22;20050;-63
2022/07/04 06:54:13;;;;;;;11.80;3.22;;;;;;;;;;6222908;23;20044;-62
2022/07/04 06:56:40;;;;;;;9.45;3.08;;;;;;;;;;6236230;23;20078;-62
2022/07/04 06:59:06;;;;;;;9.27;3.10;;;;;;;;;;6209299;23;20027;-61
2022/07/04 07:01:35;;;;;;;10.48;3.22;;;;;;;;;;6237888;23;20039;-62
2022/07/04 07:04:01;;;;;;;5.43;2.17;;;;;;;;;;6233812;23;20024;-60
2022/07/04 07:06:29;;;;;;;6.28;1.95;;;;;;;;;;6212301;23;20068;-62
2022/07/04 07:08:56;;;;;;;6.45;2.55;;;;;;;;;;6208843;23;20070;-63
2022/07/04 07:11:22;;;;;;;6.75;2.92;;;;;;;;;;6237409;23;20024;-62
2022/07/04 07:13:49;;;;;;;4.55;2.38;;;;;;;;;;6208808;23;20028;-61
2022/07/04 07:16:18;;;;;;;5.43;2.70;;;;;;;;;;6236493;23;20043;-63
2022/07/04 07:18:48;;;;;;;8.07;3.15;;;;;;;;;;6206418;23;20110;-62
2022/07/04 07:21:15;;;;;;;5.80;1.67;;;;;;;;;;6236538;23;20099;-62
2022/07/04 07:23:42;;;;;;;8.98;3.10;;;;;;;;;;6233897;23;20043;-61
2022/07/04 07:26:09;;;;;;;8.13;2.80;;;;;;;;;;6210784;23;20051;-62
2022/07/04 07:28:36;;;;;;;4.03;1.85;;;;;;;;;;6208235;23;20024;-65
2022/07/04 07:31:02;;;;;;;8.88;2.78;;;;;;;;;;6212137;23;20027;-61
2022/07/04 07:33:29;;;;;;;13.98;3.55;;;;;;;;;;6237640;23;20016;-64
2022/07/04 07:35:58;;;;;;;7.93;3.20;;;;;;;;;;6208594;23;20031;-61
2022/07/04 07:38:25;;;;;;;10.93;3.35;;;;;;;;;;6212383;23;20027;-62
2022/07/04 07:40:52;;;;;;;13.93;3.88;;;;;;;;;;6208591;23;20016;-63
2022/07/04 07:43:19;;;;;;;14.95;3.60;;;;;;;;;;6212069;23;20020;-64
2022/07/04 07:45:45;;;;;;;5.18;2.13;;;;;;;;;;6208552;23;20024;-63
2022/07/04 07:48:12;;;;;;;11.93;3.60;;;;;;;;;;6212228;23;20107;-64
2022/07/04 07:50:39;;;;;;;6.68;3.67;;;;;;;;;;6207946;23;20054;-61
2022/07/04 07:53:07;;;;;;;5.63;2.63;;;;;;;;;;6211721;22;20032;-61
2022/07/04 07:55:33;;;;;;;10.98;3.08;;;;;;;;;;6209177;23;20078;-63
2022/07/04 07:58:01;;;;;;;12.95;4.22;;;;;;;;;;6212109;23;20024;-62
2022/07/04 08:00:27;;;;;;;7.55;3.20;;;;;;;;;;6209364;23;20020;-63
2022/07/04 08:05:38;;;;;;;7.57;2.53;;;;;;;;;;6231552;23;20020;-63
2022/07/04 08:08:07;;;;;;;9.48;3.35;;;;;;;;;;6213415;23;20023;-62
2022/07/04 08:10:35;;;;;;;4.82;2.40;;;;;;;;;;6211070;23;20110;-64
2022/07/04 08:13:01;;;;;;;11.45;4.43;;;;;;;;;;6213360;23;20024;-61
2022/07/04 08:15:28;;;;;;;17.52;4.35;;;;;;;;;;6209529;23;20016;-62
2022/07/04 08:17:54;;;;;;;10.88;4.03;;;;;;;;;;6213351;23;20028;-61
2022/07/04 08:20:21;;;;;;;8.35;3.72;;;;;;;;;;6214121;23;20078;-62
2022/07/04 08:22:48;;;;;;;9.35;3.60;;;;;;;;;;6210727;23;20016;-62
2022/07/04 08:25:15;;;;;;;15.52;4.25;;;;;;;;;;6213371;23;20048;-64
2022/07/04 08:27:46;;;;;;;6.47;2.42;;;;;;;;;;6210380;23;20016;-64
2022/07/04 08:30:13;;;;;;;10.05;3.45;;;;;;;;;;6214226;23;20030;-64
2022/07/04 08:32:40;;;;;;;5.40;2.50;;;;;;;;;;6210683;23;20044;-64
2022/07/04 08:35:08;;;;;;;10.32;3.63;;;;;;;;;;6213525;23;20028;-61
2022/07/04 08:37:34;;;;;;;7.35;2.97;;;;;;;;;;6209295;23;20045;-62
2022/07/04 08:40:06;;;;;;;10.73;2.97;;;;;;;;;;6213711;23;20039;-63
2022/07/04 08:42:36;;;;;;;6.53;2.95;;;;;;;;;;6210515;23;20020;-62
2022/07/04 08:45:05;;;;;;;8.75;3.05;;;;;;;;;;6212906;23;20026;-63
2022/07/04 08:47:31;;;;;;;;;;;;;;;;;;6210606;23;20024;-63
2022/07/04 08:50:00;;;;;;;6.95;2.30;;;;;;;;;;6214266;23;19919;-61
2022/07/04 08:52:32;;;;;;;12.48;3.05;;;;;;;;;;6210214;23;20039;-64
2022/07/04 09:00:30;;;;;;;8.73;2.28;;;;;;;;;;6213592;23;20153;-63
2022/07/04 09:02:57;;;;;;;6.38;2.40;;;;;;;;;;6210238;23;20024;-61
2022/07/04 09:05:24;;;;;;;4.20;1.80;;;;;;;;;;6212742;23;20039;-62
2022/07/04 09:07:52;;;;;;;7.68;2.60;;;;;;;;;;6209076;23;20016;-61
2022/07/04 09:10:18;;;;;;;;;;;;;;;;;;6214570;23;20020;-61
2022/07/04 09:12:45;;;;;;;5.90;2.03;;;;;;;;;;6209782;23;19923;-61
2022/07/04 09:15:11;;;;;;;8.60;2.65;;;;;;;;;;6212787;23;20073;-64
2022/07/04 09:17:40;;;;;;;8.50;2.33;;;;;;;;;;6197449;23;20066;-61
2022/07/04 09:20:14;;;;;;;9.88;2.60;;;;;;;;;;6209869;23;20020;-62
2022/07/04 09:22:40;;;;;;;7.32;2.42;;;;;;;;;;6213158;23;20085;-64
2022/07/04 09:25:07;;;;;;;14.65;2.80;;;;;;;;;;6209146;23;20099;-64
2022/07/04 09:27:35;;;;;;;8.27;2.10;;;;;;;;;;6213231;23;20016;-62
2022/07/04 09:30:02;;;;;;;6.88;2.13;;;;;;;;;;6210465;23;20048;-63
2022/07/04 09:32:35;;;;;;;4.82;1.67;;;;;;;;;;6213061;23;20012;-61
2022/07/04 09:35:04;;;;;;;8.52;2.50;;;;;;;;;;6208785;23;20039;-62
2022/07/04 09:37:34;;;;;;;13.50;2.55;;;;;;;;;;6211709;23;20035;-62
2022/07/04 09:40:01;;;;;;;9.48;2.55;;;;;;;;;;6209922;23;20020;-62
2022/07/04 09:42:35;;;;;;;8.38;2.08;;;;;;;;;;6212941;23;20063;-64
2022/07/04 09:45:05;;;;;;;3.35;1.50;;;;;;;;;;6209178;23;20090;-63
2022/07/04 09:47:31;;;;;;;8.95;2.20;;;;;;;;;;6212765;23;20020;-64
2022/07/04 09:50:02;;;;;;;3.80;1.60;;;;;;;;;;6209406;23;20028;-62
2022/07/04 09:52:31;;;;;;;6.85;1.70;;;;;;;;;;6213355;23;20030;-63
2022/07/04 09:54:59;;;;;;;5.95;1.55;;;;;;;;;;6208997;23;20028;-64
2022/07/04 09:57:26;;;;;;;5.88;1.40;;;;;;;;;;6212758;23;20074;-63
2022/07/04 09:59:53;;;;;;;4.47;1.37;;;;;;;;;;6209413;23;20091;-64
2022/07/04 10:02:19;;;;;;;3.45;1.20;;;;;;;;;;6211812;23;20020;-64
2022/07/04 10:04:47;;;;;;;5.90;1.50;;;;;;;;;;6209133;23;20414;-64
2022/07/04 10:07:30;;;;;;;9.43;1.83;;;;;;;;;;6213119;23;20110;-63
2022/07/04 10:09:58;;;;;;;8.00;1.50;;;;;;;;;;6208442;23;20039;-62
2022/07/04 10:12:28;;;;;;;6.90;1.73;;;;;;;;;;6212487;23;20020;-62
2022/07/04 10:14:55;;;;;;;6.85;1.65;;;;;;;;;;6212376;23;20024;-63
2022/07/04 10:17:22;;;;;;;5.28;1.70;;;;;;;;;;6209834;23;20016;-62
2022/07/04 10:19:50;;;;;;;3.97;1.58;;;;;;;;;;6212911;23;20019;-63
2022/07/04 10:22:18;;;;;;;5.70;1.70;;;;;;;;;;6209851;23;20016;-62
2022/07/04 10:24:44;;;;;;;4.85;1.42;;;;;;;;;;6212933;23;20020;-62
2022/07/04 10:27:13;;;;;;;5.80;1.40;;;;;;;;;;6233905;23;20020;-61
2022/07/04 10:29:40;;;;;;;2.00;1.17;;;;;;;;;;6212244;23;20024;-62
2022/07/04 10:32:08;;;;;;;2.15;1.20;;;;;;;;;;6208906;23;20032;-63
2022/07/04 10:34:40;;;;;;;5.10;1.30;;;;;;;;;;6212784;23;20094;-61
2022/07/04 10:37:07;;;;;;;4.18;1.27;;;;;;;;;;6208849;23;20048;-63
2022/07/04 10:39:34;;;;;;;4.60;1.47;;;;;;;;;;6212411;23;20020;-61
2022/07/04 10:42:01;;;;;;;4.20;1.52;;;;;;;;;;6209490;23;20270;-64
2022/07/04 10:44:36;;;;;;;4.00;1.45;;;;;;;;;;6212115;23;20039;-62
2022/07/04 10:47:03;;;;;;;1.98;1.10;;;;;;;;;;6208474;23;20086;-62
2022/07/04 10:49:30;;;;;;;3.75;1.08;;;;;;;;;;6212737;23;20020;-63
2022/07/04 10:52:02;;;;;;;5.78;1.63;;;;;;;;;;6233730;23;20023;-64
2022/07/04 10:54:31;;;;;;;3.95;1.20;;;;;;;;;;6211581;23;20028;-61
2022/07/04 10:56:58;;;;;;;4.90;1.58;;;;;;;;;;6233763;23;20024;-62
2022/07/04 10:59:25;;;;;;;2.88;1.20;;;;;;;;;;6236656;23;20012;-62
2022/07/04 11:02:13;;;;;;;3.80;1.92;;;;;;;;;;6209410;23;20031;-64
2022/07/04 11:04:51;;;;;;;5.50;1.80;;;;;;;;;;6200926;23;20028;-63
2022/07/04 11:07:19;;;;;;;7.43;2.00;;;;;;;;;;6209408;23;20027;-61
2022/07/04 11:09:45;;;;;;;3.38;1.30;;;;;;;;;;6209626;23;20103;-65
2022/07/04 11:12:14;;;;;;;4.95;1.80;;;;;;;;;;6211527;23;20020;-63
2022/07/04 11:14:40;;;;;;;;;;;;;;;;;;6234212;23;20043;-66
2022/07/04 11:17:08;;;;;;;6.75;1.40;;;;;;;;;;6211563;23;19923;-65
2022/07/04 11:19:34;;;;;;;2.65;1.10;;;;;;;;;;6209048;23;20024;-66
2022/07/04 11:22:04;;;;;;;3.42;1.17;;;;;;;;;;6212624;23;20023;-63
2022/07/04 11:24:31;;;;;;;4.07;1.48;;;;;;;;;;6235229;23;20028;-63
2022/07/04 11:26:58;;;;;;;7.45;1.95;;;;;;;;;;6211786;23;20035;-67
2022/07/04 11:29:25;;;;;;;4.85;1.70;;;;;;;;;;6211162;23;20038;-65
2022/07/04 11:31:52;;;;;;;4.10;1.58;;;;;;;;;;6210231;23;20087;-64
2022/07/04 11:34:18;;;;;;;6.70;1.63;;;;;;;;;;6237611;23;20024;-62
2022/07/04 11:36:47;;;;;;;5.55;1.55;;;;;;;;;;6207708;23;20023;-66
2022/07/04 11:39:18;;;;;;;4.25;1.17;;;;;;;;;;6212013;23;20020;-63
2022/07/04 11:47:16;;;;;;;3.83;1.42;;;;;;;;;;6208203;23;20146;-64
2022/07/04 11:49:43;;;;;;;4.55;1.35;;;;;;;;;;6211664;23;20020;-66
2022/07/04 11:52:10;;;;;;;5.28;1.58;;;;;;;;;;6210020;23;20091;-64
2022/07/04 11:54:39;;;;;;;5.22;1.70;;;;;;;;;;6211184;23;20024;-62
2022/07/04 11:57:09;;;;;;;3.13;1.27;;;;;;;;;;6212122;23;20013;-65
2022/07/04 11:59:36;;;;;;;5.30;1.63;;;;;;;;;;6209246;23;20078;-65
2022/07/04 12:02:10;;;;;;;10.00;1.75;;;;;;;;;;6212336;23;20020;-64
2022/07/04 12:04:38;;;;;;;3.60;1.30;;;;;;;;;;6208836;23;20024;-66
2022/07/04 12:07:09;;;;;;;7.68;1.30;;;;;;;;;;6210893;23;20024;-64
2022/07/04 12:09:35;;;;;;;2.08;1.13;;;;;;;;;;6208323;23;20017;-62
2022/07/04 12:12:05;;;;;;;2.22;1.20;;;;;;;;;;6211376;23;20020;-62
2022/07/04 12:14:32;;;;;;;2.70;1.30;;;;;;;;;;6210104;23;20036;-64
2022/07/04 12:17:15;;;;;;;4.70;1.30;;;;;;;;;;6208636;23;20024;-62
2022/07/04 12:19:52;;;;;;;3.88;1.42;;;;;;;;;;6210406;23;20012;-63
2022/07/04 12:22:29;;;;;;;3.83;1.75;;;;;;;;;;6209816;23;20027;-62
2022/07/04 12:24:56;;;;;;;5.07;1.45;;;;;;;;;;6211688;23;20035;-64
2022/07/04 12:27:24;;;;;;;4.95;1.40;;;;;;;;;;6208365;23;20076;-62
2022/07/04 12:29:50;;;;;;;;;;;;;;;;;;6211712;23;20024;-65
2022/07/04 12:32:17;;;;;;;8.52;1.55;;;;;;;;;;6234005;23;19924;-65
2022/07/04 12:34:44;;;;;;;3.55;1.40;;;;;;;;;;6211436;23;20027;-65
2022/07/04 12:37:11;;;;;;;7.40;1.70;;;;;;;;;;6207747;23;20031;-63
2022/07/04 12:39:39;;;;;;;5.38;1.23;;;;;;;;;;6211930;23;20027;-64
2022/07/04 12:42:06;;;;;;;4.70;1.27;;;;;;;;;;6208941;23;20047;-63
2022/07/04 12:44:37;;;;;;;2.27;0.97;;;;;;;;;;6212248;23;20032;-63
2022/07/04 12:47:05;;;;;;;2.65;1.30;;;;;;;;;;6207673;23;20074;-65
2022/07/04 12:49:32;;;;;;;5.30;1.33;;;;;;;;;;6211588;23;20025;-63
2022/07/04 12:52:08;;;;;;;4.22;1.35;;;;;;;;;;6207613;23;20024;-63
2022/07/04 12:54:35;;;;;;;4.35;1.10;;;;;;;;;;6228911;23;20055;-64
2022/07/04 12:57:06;;;;;;;4.28;1.17;;;;;;;;;;6209551;23;20102;-64
2022/07/04 12:59:33;;;;;;;3.10;1.48;;;;;;;;;;6239261;23;20013;-62
2022/07/04 13:02:01;;;;;;;3.35;1.40;;;;;;;;;;6234975;23;20028;-62
2022/07/04 13:04:28;;;;;;;6.60;1.52;;;;;;;;;;6212892;23;20016;-63
2022/07/04 13:06:57;;;;;;;1.65;0.95;;;;;;;;;;6235305;23;20031;-63
2022/07/04 13:09:23;;;;;;;4.00;1.25;;;;;;;;;;6211962;23;20020;-64
2022/07/04 13:14:34;;;;;;;1.45;1.05;;;;;;;;;;6213013;23;20024;-63
2022/07/04 13:17:02;;;;;;;3.42;1.20;;;;;;;;;;6238682;23;20020;-63
2022/07/04 13:19:28;;;;;;;3.38;1.10;;;;;;;;;;6235057;23;20020;-63
2022/07/04 13:21:55;;;;;;;2.22;0.90;;;;;;;;;;6238624;23;20070;-63
2022/07/04 13:24:22;;;;;;;2.83;1.10;;;;;;;;;;6210003;23;20050;-63
2022/07/04 13:26:48;;;;;;;1.90;0.80;;;;;;;;;;6238232;23;20042;-63
2022/07/04 13:29:15;;;;;;;2.42;1.00;;;;;;;;;;6236545;23;20028;-63
2022/07/04 13:31:42;;;;;;;3.80;1.10;;;;;;;;;;6212664;23;20027;-63
2022/07/04 13:34:10;;;;;;;1.70;1.10;;;;;;;;;;6209624;23;20028;-63
2022/07/04 13:36:36;;;;;;;3.65;1.30;;;;;;;;;;6211951;23;20028;-63
2022/07/04 13:39:03;;;;;;;3.97;1.17;;;;;;;;;;6209836;23;20016;-63
2022/07/04 13:41:31;;;;;;;3.53;1.15;;;;;;;;;;6213127;23;20103;-63
2022/07/04 13:43:58;;;;;;;4.43;1.27;;;;;;;;;;6209881;23;20024;-63
2022/07/04 13:46:24;;;;;;;1.73;0.80;;;;;;;;;;6210535;23;20040;-63
2022/07/04 13:48:51;;;;;;;2.13;0.90;;;;;;;;;;6209568;23;20024;-63
2022/07/04 13:51:19;;;;;;;2.03;1.10;;;;;;;;;;6212769;23;20031;-63
2022/07/04 13:53:46;;;;;;;2.58;1.00;;;;;;;;;;6209681;23;20031;-64
2022/07/04 13:56:15;;;;;;;4.10;1.30;;;;;;;;;;6212561;23;20028;-64
2022/07/04 13:58:42;;;;;;;2.58;1.10;;;;;;;;;;6212102;23;20047;-63
2022/07/04 14:01:10;;;;;;;3.63;1.10;;;;;;;;;;6211710;23;20024;-63
2022/07/04 14:03:36;;;;;;;1.95;1.15;;;;;;;;;;6213010;23;20065;-64
2022/07/04 14:06:03;;;;;;;3.67;0.90;;;;;;;;;;6210034;23;20079;-63
2022/07/04 14:08:31;;;;;;;2.47;1.00;;;;;;;;;;6212931;23;20028;-63
2022/07/04 14:10:57;;;;;;;2.45;1.00;;;;;;;;;;6209036;23;20119;-63
2022/07/04 14:13:24;;;;;;;3.83;1.00;;;;;;;;;;6212576;23;20031;-63
2022/07/04 14:15:50;;;;;;;3.60;1.20;;;;;;;;;;6209747;23;20046;-63
2022/07/04 14:18:17;;;;;;;3.72;1.50;;;;;;;;;;6212418;23;20031;-63
2022/07/04 14:20:44;;;;;;;3.65;1.15;;;;;;;;;;6209685;23;20020;-63
2022/07/04 14:23:10;;;;;;;4.05;1.00;;;;;;;;;;6212650;23;20023;-63
2022/07/04 14:25:38;;;;;;;2.63;1.00;;;;;;;;;;6209147;23;20121;-64
2022/07/04 14:28:06;;;;;;;1.48;1.00;;;;;;;;;;6212263;23;20020;-64
2022/07/04 14:30:32;;;;;;;2.35;0.88;;;;;;;;;;6209491;23;20032;-63
2022/07/04 14:32:59;;;;;;;2.97;1.20;;;;;;;;;;6212603;23;20028;-63
2022/07/04 14:35:25;;;;;;;1.90;0.98;;;;;;;;;;6208760;23;20048;-63
2022/07/04 14:37:55;;;;;;;2.45;1.05;;;;;;;;;;6211244;23;20020;-63
2022/07/04 14:40:22;;;;;;;2.85;0.93;;;;;;;;;;6210178;23;20046;-63
2022/07/04 14:42:50;;;;;;;1.77;0.82;;;;;;;;;;6212146;23;20090;-63
2022/07/04 14:45:16;;;;;;;6.00;0.98;;;;;;;;;;6212284;23;20101;-63
2022/07/04 14:47:43;;;;;;;1.88;0.63;;;;;;;;;;6209204;23;20047;-63
2022/07/04 14:50:10;;;;;;;1.13;0.80;;;;;;;;;;6212334;23;20111;-63
2022/07/04 14:52:37;;;;;;;1.90;1.08;;;;;;;;;;6208998;23;20024;-63
2022/07/04 14:55:04;;;;;;;3.33;1.10;;;;;;;;;;6238158;22;20081;-63
2022/07/04 14:57:30;;;;;;;4.88;1.00;;;;;;;;;;6239323;22;20012;-63
2022/07/04 14:59:58;;;;;;;2.97;0.90;;;;;;;;;;6242413;22;20023;-63
2022/07/04 15:02:25;;;;;;;4.22;1.00;;;;;;;;;;6265246;22;20015;-63
2022/07/04 15:04:51;;;;;;;5.35;1.10;;;;;;;;;;6242944;22;20019;-63
2022/07/04 15:07:18;;;;;;;3.92;1.23;;;;;;;;;;6238758;22;20039;-64
2022/07/04 15:09:45;;;;;;;2.33;0.98;;;;;;;;;;6243031;22;20015;-63
2022/07/04 15:12:11;;;;;;;4.03;1.10;;;;;;;;;;6264876;22;20015;-63
2022/07/04 15:14:38;;;;;;;4.72;1.20;;;;;;;;;;6240714;22;20081;-63